sensor_id;sensor_type;location;lat;lon;timestamp;temperature;humidity
74420;DHT22;62855;50.718;-2.460;2024-03-23T00:55:06;32.36;3.00
74420;DHT22;62855;50.718;-2.460;2024-03-23T00:58:06;32.18;3.00
74420;DHT22;62855;50.718;-2.460;2024-03-23T01:01:05;32.36;2.00
74420;DHT22;62855;50.718;-2.460;2024-03-23T01:04:06;32.36;2.00
74420;DHT22;62855;50.718;-2.460;2024-03-23T01:07:06;32.36;2.00
74420;DHT22;62855;50.718;-2.460;2024-03-23T01:10:06;32.18;2.00
74420;DHT22;62855;50.718;-2.460;2024-03-23T01:13:05;32.18;2.00
74420;DHT22;62855;50.718;-2.460;2024-03-23T01:16:05;32.18;2.00
74420;DHT22;62855;50.718;-2.460;2024-03-23T01:19:06;32.18;2.00
74420;DHT22;62855;50.718;-2.460;2024-03-23T01:22:06;32.18;2.00
74420;DHT22;62855;50.718;-2.460;2024-03-23T01:25:06;32.18;2.00
74420;DHT22;62855;50.718;-2.460;2024-03-23T01:28:06;32.18;2.00
74420;DHT22;62855;50.718;-2.460;2024-03-23T01:31:05;32.18;2.00
74420;DHT22;62855;50.718;-2.460;2024-03-23T01:34:06;32.18;2.00
74420;DHT22;62855;50.718;-2.460;2024-03-23T01:37:06;32.18;2.00
74420;DHT22;62855;50.718;-2.460;2024-03-23T01:40:06;32.36;2.00
74420;DHT22;62855;50.718;-2.460;2024-03-23T01:43:07;32.36;2.00
74420;DHT22;62855;50.718;-2.460;2024-03-23T01:46:06;32.18;2.00
74420;DHT22;62855;50.718;-2.460;2024-03-23T01:49:06;32.18;2.00
74420;DHT22;62855;50.718;-2.460;2024-03-23T01:52:06;32.18;2.00
74420;DHT22;62855;50.718;-2.460;2024-03-23T01:55:06;32.18;2.00
74420;DHT22;62855;50.718;-2.460;2024-03-23T01:58:06;32.00;2.00
74420;DHT22;62855;50.718;-2.460;2024-03-23T02:01:05;32.00;2.00
74420;DHT22;62855;50.718;-2.460;2024-03-23T02:04:07;33.62;2.00
74420;DHT22;62855;50.718;-2.460;2024-03-23T02:07:06;33.62;2.00
74420;DHT22;62855;50.718;-2.460;2024-03-23T02:10:06;33.62;2.00
74420;DHT22;62855;50.718;-2.460;2024-03-23T02:13:06;33.44;2.00
74420;DHT22;62855;50.718;-2.460;2024-03-23T02:16:06;33.44;2.00
74420;DHT22;62855;50.718;-2.460;2024-03-23T02:19:06;33.44;2.00
74420;DHT22;62855;50.718;-2.460;2024-03-23T02:22:05;33.26;2.00
74420;DHT22;62855;50.718;-2.460;2024-03-23T02:25:06;33.26;2.00
74420;DHT22;62855;50.718;-2.460;2024-03-23T02:28:05;33.26;2.00
74420;DHT22;62855;50.718;-2.460;2024-03-23T02:31:06;33.26;2.00
74420;DHT22;62855;50.718;-2.460;2024-03-23T02:34:06;33.26;3.00
74420;DHT22;62855;50.718;-2.460;2024-03-23T02:37:10;33.26;3.00
74420;DHT22;62855;50.718;-2.460;2024-03-23T02:40:08;33.26;3.00
74420;DHT22;62855;50.718;-2.460;2024-03-23T02:43:06;33.26;3.00
74420;DHT22;62855;50.718;-2.460;2024-03-23T02:46:05;33.08;3.00
74420;DHT22;62855;50.718;-2.460;2024-03-23T02:49:06;33.08;3.00
74420;DHT22;62855;50.718;-2.460;2024-03-23T02:52:06;33.08;3.00
74420;DHT22;62855;50.718;-2.460;2024-03-23T02:55:06;33.08;3.00
74420;DHT22;62855;50.718;-2.460;2024-03-23T02:58:05;33.08;3.00
74420;DHT22;62855;50.718;-2.460;2024-03-23T03:01:06;33.08;3.00
74420;DHT22;62855;50.718;-2.460;2024-03-23T03:04:06;33.08;3.00
74420;DHT22;62855;50.718;-2.460;2024-03-23T03:07:06;33.08;3.00
74420;DHT22;62855;50.718;-2.460;2024-03-23T03:10:06;32.90;3.00
74420;DHT22;62855;50.718;-2.460;2024-03-23T03:13:06;32.90;3.00
74420;DHT22;62855;50.718;-2.460;2024-03-23T03:16:08;32.90;3.00
74420;DHT22;62855;50.718;-2.460;2024-03-23T03:19:06;32.90;3.00
74420;DHT22;62855;50.718;-2.460;2024-03-23T03:22:06;32.90;3.00
74420;DHT22;62855;50.718;-2.460;2024-03-23T03:25:06;32.72;3.00
74420;DHT22;62855;50.718;-2.460;2024-03-23T03:28:06;32.72;3.00
74420;DHT22;62855;50.718;-2.460;2024-03-23T03:31:05;32.72;3.00
74420;DHT22;62855;50.718;-2.460;2024-03-23T03:34:06;32.72;3.00
74420;DHT22;62855;50.718;-2.460;2024-03-23T03:37:06;32.90;3.00
74420;DHT22;62855;50.718;-2.460;2024-03-23T03:40:06;32.90;3.00
74420;DHT22;62855;50.718;-2.460;2024-03-23T03:43:06;32.90;3.00
74420;DHT22;62855;50.718;-2.460;2024-03-23T03:46:06;32.90;3.00
74420;DHT22;62855;50.718;-2.460;2024-03-23T03:49:05;32.90;3.00
74420;DHT22;62855;50.718;-2.460;2024-03-23T03:52:06;32.90;3.00
74420;DHT22;62855;50.718;-2.460;2024-03-23T03:55:12;32.90;3.00
74420;DHT22;62855;50.718;-2.460;2024-03-23T03:58:05;32.90;3.00
74420;DHT22;62855;50.718;-2.460;2024-03-23T04:01:05;32.90;3.00
74420;DHT22;62855;50.718;-2.460;2024-03-23T04:04:06;33.08;3.00
74420;DHT22;62855;50.718;-2.460;2024-03-23T04:07:06;33.08;3.00
74420;DHT22;62855;50.718;-2.460;2024-03-23T04:10:06;32.90;3.00
74420;DHT22;62855;50.718;-2.460;2024-03-23T04:13:06;32.90;3.00
74420;DHT22;62855;50.718;-2.460;2024-03-23T04:16:06;32.90;3.00
74420;DHT22;62855;50.718;-2.460;2024-03-23T04:19:05;32.90;3.00
74420;DHT22;62855;50.718;-2.460;2024-03-23T04:22:06;32.90;3.00
74420;DHT22;62855;50.718;-2.460;2024-03-23T04:25:06;32.72;3.00
74420;DHT22;62855;50.718;-2.460;2024-03-23T04:28:06;32.72;2.00
74420;DHT22;62855;50.718;-2.460;2024-03-23T04:31:06;32.54;2.00
74420;DHT22;62855;50.718;-2.460;2024-03-23T04:34:05;32.36;2.00
74420;DHT22;62855;50.718;-2.460;2024-03-23T04:37:06;32.36;3.00
74420;DHT22;62855;50.718;-2.460;2024-03-23T04:40:07;32.18;3.00
74420;DHT22;62855;50.718;-2.460;2024-03-23T04:43:05;32.00;3.00
74420;DHT22;62855;50.718;-2.460;2024-03-23T04:46:06;32.00;3.00
74420;DHT22;62855;50.718;-2.460;2024-03-23T04:49:05;33.62;3.00
74420;DHT22;62855;50.718;-2.460;2024-03-23T04:52:05;33.62;3.00
74420;DHT22;62855;50.718;-2.460;2024-03-23T04:55:06;33.62;3.00
74420;DHT22;62855;50.718;-2.460;2024-03-23T04:58:06;33.62;3.00
74420;DHT22;62855;50.718;-2.460;2024-03-23T05:01:06;33.62;3.00
74420;DHT22;62855;50.718;-2.460;2024-03-23T05:04:05;33.62;4.00
74420;DHT22;62855;50.718;-2.460;2024-03-23T05:07:05;32.00;4.00
74420;DHT22;62855;50.718;-2.460;2024-03-23T05:10:06;32.00;4.00
74420;DHT22;62855;50.718;-2.460;2024-03-23T05:13:06;32.00;4.00
74420;DHT22;62855;50.718;-2.460;2024-03-23T05:16:06;32.00;4.00
74420;DHT22;62855;50.718;-2.460;2024-03-23T05:19:05;32.00;5.00
74420;DHT22;62855;50.718;-2.460;2024-03-23T05:22:05;32.00;5.00
74420;DHT22;62855;50.718;-2.460;2024-03-23T05:25:06;32.18;5.00
74420;DHT22;62855;50.718;-2.460;2024-03-23T05:28:05;32.18;5.00
74420;DHT22;62855;50.718;-2.460;2024-03-23T05:31:05;32.18;5.00
74420;DHT22;62855;50.718;-2.460;2024-03-23T05:34:06;32.18;5.00
74420;DHT22;62855;50.718;-2.460;2024-03-23T05:37:06;32.18;5.00
74420;DHT22;62855;50.718;-2.460;2024-03-23T05:40:06;32.18;5.00
74420;DHT22;62855;50.718;-2.460;2024-03-23T05:43:06;32.18;5.00
74420;DHT22;62855;50.718;-2.460;2024-03-23T05:46:06;32.18;5.00
74420;DHT22;62855;50.718;-2.460;2024-03-23T05:49:06;32.18;5.00
74420;DHT22;62855;50.718;-2.460;2024-03-23T05:52:06;32.18;5.00
74420;DHT22;62855;50.718;-2.460;2024-03-23T05:55:06;32.18;5.00
74420;DHT22;62855;50.718;-2.460;2024-03-23T05:58:06;32.18;5.00
74420;DHT22;62855;50.718;-2.460;2024-03-23T06:01:05;32.18;5.00
74420;DHT22;62855;50.718;-2.460;2024-03-23T06:04:06;32.18;5.00
74420;DHT22;62855;50.718;-2.460;2024-03-23T06:07:06;32.00;5.00
74420;DHT22;62855;50.718;-2.460;2024-03-23T06:10:07;32.00;6.00
74420;DHT22;62855;50.718;-2.460;2024-03-23T06:13:05;32.00;6.00
74420;DHT22;62855;50.718;-2.460;2024-03-23T06:16:06;32.00;6.00
74420;DHT22;62855;50.718;-2.460;2024-03-23T06:19:06;32.00;6.00
74420;DHT22;62855;50.718;-2.460;2024-03-23T06:22:05;32.00;6.00
74420;DHT22;62855;50.718;-2.460;2024-03-23T06:25:08;32.00;6.00
74420;DHT22;62855;50.718;-2.460;2024-03-23T06:28:05;32.36;1.00
74420;DHT22;62855;50.718;-2.460;2024-03-23T06:31:08;32.54;1.00
74420;DHT22;62855;50.718;-2.460;2024-03-23T06:34:06;32.54;1.00
74420;DHT22;62855;50.718;-2.460;2024-03-23T06:37:06;32.54;1.00
74420;DHT22;62855;50.718;-2.460;2024-03-23T06:40:06;32.72;1.00
74420;DHT22;62855;50.718;-2.460;2024-03-23T06:43:05;32.72;0.00
74420;DHT22;62855;50.718;-2.460;2024-03-23T06:46:06;32.72;0.00
74420;DHT22;62855;50.718;-2.460;2024-03-23T06:49:06;32.90;0.00
74420;DHT22;62855;50.718;-2.460;2024-03-23T06:52:06;33.08;0.00
74420;DHT22;62855;50.718;-2.460;2024-03-23T06:55:06;33.26;0.00
74420;DHT22;62855;50.718;-2.460;2024-03-23T06:58:06;33.26;0.00
74420;DHT22;62855;50.718;-2.460;2024-03-23T07:01:05;33.44;0.00
74420;DHT22;62855;50.718;-2.460;2024-03-23T07:04:05;33.44;0.00
74420;DHT22;62855;50.718;-2.460;2024-03-23T07:07:06;33.26;6.00
74420;DHT22;62855;50.718;-2.460;2024-03-23T07:10:07;33.44;6.00
74420;DHT22;62855;50.718;-2.460;2024-03-23T07:13:05;33.62;6.00
74420;DHT22;62855;50.718;-2.460;2024-03-23T07:16:06;33.62;6.00
74420;DHT22;62855;50.718;-2.460;2024-03-23T07:19:06;32.00;6.00
74420;DHT22;62855;50.718;-2.460;2024-03-23T07:22:05;32.36;6.00
74420;DHT22;62855;50.718;-2.460;2024-03-23T07:25:07;32.54;6.00
74420;DHT22;62855;50.718;-2.460;2024-03-23T07:28:05;32.72;5.00
74420;DHT22;62855;50.718;-2.460;2024-03-23T07:31:07;32.90;5.00
74420;DHT22;62855;50.718;-2.460;2024-03-23T07:34:05;33.08;4.00
74420;DHT22;62855;50.718;-2.460;2024-03-23T07:37:06;33.26;4.00
74420;DHT22;62855;50.718;-2.460;2024-03-23T07:40:06;33.44;3.00
74420;DHT22;62855;50.718;-2.460;2024-03-23T07:43:05;33.62;3.00
74420;DHT22;62855;50.718;-2.460;2024-03-23T07:46:06;32.00;2.00
74420;DHT22;62855;50.718;-2.460;2024-03-23T07:49:06;32.00;2.00
74420;DHT22;62855;50.718;-2.460;2024-03-23T07:52:05;32.18;2.00
74420;DHT22;62855;50.718;-2.460;2024-03-23T07:55:06;32.36;1.00
74420;DHT22;62855;50.718;-2.460;2024-03-23T07:58:05;32.54;1.00
74420;DHT22;62855;50.718;-2.460;2024-03-23T08:01:07;32.90;0.00
74420;DHT22;62855;50.718;-2.460;2024-03-23T08:04:06;33.08;0.00
74420;DHT22;62855;50.718;-2.460;2024-03-23T08:07:06;33.26;0.00
74420;DHT22;62855;50.718;-2.460;2024-03-23T08:10:06;33.44;0.00
74420;DHT22;62855;50.718;-2.460;2024-03-23T08:13:06;33.62;5.00
74420;DHT22;62855;50.718;-2.460;2024-03-23T08:16:06;32.00;4.00
74420;DHT22;62855;50.718;-2.460;2024-03-23T08:19:06;32.00;4.00
74420;DHT22;62855;50.718;-2.460;2024-03-23T08:22:06;32.36;4.00
74420;DHT22;62855;50.718;-2.460;2024-03-23T08:25:06;32.54;4.00
74420;DHT22;62855;50.718;-2.460;2024-03-23T08:28:06;32.90;4.00
74420;DHT22;62855;50.718;-2.460;2024-03-23T08:31:07;33.08;4.00
74420;DHT22;62855;50.718;-2.460;2024-03-23T08:34:06;33.26;3.00
74420;DHT22;62855;50.718;-2.460;2024-03-23T08:37:05;33.44;3.00
74420;DHT22;62855;50.718;-2.460;2024-03-23T08:40:07;33.62;3.00
74420;DHT22;62855;50.718;-2.460;2024-03-23T08:43:06;32.00;3.00
74420;DHT22;62855;50.718;-2.460;2024-03-23T08:46:07;32.00;2.00
74420;DHT22;62855;50.718;-2.460;2024-03-23T08:49:06;32.18;2.00
74420;DHT22;62855;50.718;-2.460;2024-03-23T08:52:06;32.36;1.00
74420;DHT22;62855;50.718;-2.460;2024-03-23T08:55:06;32.54;1.00
74420;DHT22;62855;50.718;-2.460;2024-03-23T08:58:05;32.72;1.00
74420;DHT22;62855;50.718;-2.460;2024-03-23T09:01:07;32.90;1.00
74420;DHT22;62855;50.718;-2.460;2024-03-23T09:04:06;33.08;0.00
74420;DHT22;62855;50.718;-2.460;2024-03-23T09:07:05;33.26;0.00
74420;DHT22;62855;50.718;-2.460;2024-03-23T09:10:07;33.62;0.00
74420;DHT22;62855;50.718;-2.460;2024-03-23T09:13:06;32.00;0.00
74420;DHT22;62855;50.718;-2.460;2024-03-23T09:16:06;32.18;0.00
74420;DHT22;62855;50.718;-2.460;2024-03-23T09:19:06;32.18;0.00
74420;DHT22;62855;50.718;-2.460;2024-03-23T09:22:05;32.18;0.00
74420;DHT22;62855;50.718;-2.460;2024-03-23T09:25:07;33.62;7.00
74420;DHT22;62855;50.718;-2.460;2024-03-23T09:28:06;33.44;6.00
74420;DHT22;62855;50.718;-2.460;2024-03-23T09:31:07;33.08;6.00
74420;DHT22;62855;50.718;-2.460;2024-03-23T09:34:06;33.08;7.00
74420;DHT22;62855;50.718;-2.460;2024-03-23T09:37:05;33.26;7.00
74420;DHT22;62855;50.718;-2.460;2024-03-23T09:40:09;33.26;8.00
74420;DHT22;62855;50.718;-2.460;2024-03-23T09:43:06;33.26;8.00
74420;DHT22;62855;50.718;-2.460;2024-03-23T09:46:06;33.26;9.00
74420;DHT22;62855;50.718;-2.460;2024-03-23T09:49:07;33.26;0.00
74420;DHT22;62855;50.718;-2.460;2024-03-23T09:52:06;33.08;0.00
74420;DHT22;62855;50.718;-2.460;2024-03-23T09:55:06;33.08;0.00
74420;DHT22;62855;50.718;-2.460;2024-03-23T09:58:06;33.26;0.00
74420;DHT22;62855;50.718;-2.460;2024-03-23T10:01:06;33.26;0.00
74420;DHT22;62855;50.718;-2.460;2024-03-23T10:04:05;33.26;0.00
74420;DHT22;62855;50.718;-2.460;2024-03-23T10:07:11;33.44;0.00
74420;DHT22;62855;50.718;-2.460;2024-03-23T10:10:11;33.62;1.00
74420;DHT22;62855;50.718;-2.460;2024-03-23T10:13:05;32.00;1.00
74420;DHT22;62855;50.718;-2.460;2024-03-23T10:16:06;32.18;1.00
74420;DHT22;62855;50.718;-2.460;2024-03-23T10:19:07;32.18;0.00
74420;DHT22;62855;50.718;-2.460;2024-03-23T10:22:06;33.62;0.00
74420;DHT22;62855;50.718;-2.460;2024-03-23T10:25:27;33.62;0.00
74420;DHT22;62855;50.718;-2.460;2024-03-23T10:28:06;33.26;0.00
74420;DHT22;62855;50.718;-2.460;2024-03-23T10:31:11;33.26;0.00
74420;DHT22;62855;50.718;-2.460;2024-03-23T10:34:06;33.26;1.00
74420;DHT22;62855;50.718;-2.460;2024-03-23T10:37:06;33.44;0.00
74420;DHT22;62855;50.718;-2.460;2024-03-23T10:40:06;33.44;0.00
74420;DHT22;62855;50.718;-2.460;2024-03-23T10:43:06;33.08;0.00
74420;DHT22;62855;50.718;-2.460;2024-03-23T10:46:06;32.72;0.00
74420;DHT22;62855;50.718;-2.460;2024-03-23T10:49:06;32.72;1.00
74420;DHT22;62855;50.718;-2.460;2024-03-23T10:52:06;32.72;1.00
74420;DHT22;62855;50.718;-2.460;2024-03-23T10:55:07;32.90;1.00
74420;DHT22;62855;50.718;-2.460;2024-03-23T10:58:06;33.08;2.00
74420;DHT22;62855;50.718;-2.460;2024-03-23T11:01:05;33.26;2.00
74420;DHT22;62855;50.718;-2.460;2024-03-23T11:04:06;33.44;1.00
74420;DHT22;62855;50.718;-2.460;2024-03-23T11:16:14;33.62;1.00
74420;DHT22;62855;50.718;-2.460;2024-03-23T11:22:05;32.54;2.00
74420;DHT22;62855;50.718;-2.460;2024-03-23T11:25:14;32.54;2.00
74420;DHT22;62855;50.718;-2.460;2024-03-23T11:28:11;32.54;2.00
74420;DHT22;62855;50.718;-2.460;2024-03-23T11:31:09;32.36;2.00
74420;DHT22;62855;50.718;-2.460;2024-03-23T11:34:06;33.62;3.00
74420;DHT22;62855;50.718;-2.460;2024-03-23T11:37:06;32.90;4.00
74420;DHT22;62855;50.718;-2.460;2024-03-23T11:40:18;32.18;4.00
74420;DHT22;62855;50.718;-2.460;2024-03-23T11:43:06;33.62;5.00
74420;DHT22;62855;50.718;-2.460;2024-03-23T11:46:05;33.44;7.00
74420;DHT22;62855;50.718;-2.460;2024-03-23T11:49:06;33.44;8.00
74420;DHT22;62855;50.718;-2.460;2024-03-23T11:52:06;33.62;0.00
74420;DHT22;62855;50.718;-2.460;2024-03-23T11:55:06;32.18;0.00
74420;DHT22;62855;50.718;-2.460;2024-03-23T11:58:06;32.54;0.00
74420;DHT22;62855;50.718;-2.460;2024-03-23T12:01:10;32.54;1.00
74420;DHT22;62855;50.718;-2.460;2024-03-23T12:04:06;32.72;1.00
74420;DHT22;62855;50.718;-2.460;2024-03-23T12:07:10;32.90;1.00
74420;DHT22;62855;50.718;-2.460;2024-03-23T12:10:07;33.08;1.00
74420;DHT22;62855;50.718;-2.460;2024-03-23T12:13:45;33.26;1.00
74420;DHT22;62855;50.718;-2.460;2024-03-23T12:16:10;33.44;1.00
74420;DHT22;62855;50.718;-2.460;2024-03-23T12:19:06;33.62;0.00
74420;DHT22;62855;50.718;-2.460;2024-03-23T12:22:06;32.00;0.00
74420;DHT22;62855;50.718;-2.460;2024-03-23T12:25:06;32.18;8.00
74420;DHT22;62855;50.718;-2.460;2024-03-23T12:28:07;32.18;7.00
74420;DHT22;62855;50.718;-2.460;2024-03-23T12:31:06;32.72;6.00
74420;DHT22;62855;50.718;-2.460;2024-03-23T12:34:05;33.62;5.00
74420;DHT22;62855;50.718;-2.460;2024-03-23T12:37:06;32.18;5.00
74420;DHT22;62855;50.718;-2.460;2024-03-23T12:40:07;32.36;3.00
74420;DHT22;62855;50.718;-2.460;2024-03-23T12:43:06;32.36;3.00
74420;DHT22;62855;50.718;-2.460;2024-03-23T12:46:06;32.00;2.00
74420;DHT22;62855;50.718;-2.460;2024-03-23T12:49:06;32.90;2.00
74420;DHT22;62855;50.718;-2.460;2024-03-23T12:52:06;33.62;2.00
74420;DHT22;62855;50.718;-2.460;2024-03-23T12:55:06;32.54;2.00
74420;DHT22;62855;50.718;-2.460;2024-03-23T12:58:06;33.44;3.00
74420;DHT22;62855;50.718;-2.460;2024-03-23T13:01:05;32.54;4.00
74420;DHT22;62855;50.718;-2.460;2024-03-23T13:04:06;32.00;5.00
74420;DHT22;62855;50.718;-2.460;2024-03-23T13:07:06;33.44;1.00
74420;DHT22;62855;50.718;-2.460;2024-03-23T13:10:06;33.26;2.00
74420;DHT22;62855;50.718;-2.460;2024-03-23T13:13:06;33.44;3.00
74420;DHT22;62855;50.718;-2.460;2024-03-23T13:16:06;33.62;0.00
74420;DHT22;62855;50.718;-2.460;2024-03-23T13:19:05;32.36;1.00
74420;DHT22;62855;50.718;-2.460;2024-03-23T13:22:05;32.54;2.00
74420;DHT22;62855;50.718;-2.460;2024-03-23T13:25:07;32.90;2.00
74420;DHT22;62855;50.718;-2.460;2024-03-23T13:28:06;33.08;2.00
74420;DHT22;62855;50.718;-2.460;2024-03-23T13:31:06;33.08;2.00
74420;DHT22;62855;50.718;-2.460;2024-03-23T13:34:05;32.72;2.00
74420;DHT22;62855;50.718;-2.460;2024-03-23T13:37:06;32.36;1.00
74420;DHT22;62855;50.718;-2.460;2024-03-23T13:40:07;32.00;1.00
74420;DHT22;62855;50.718;-2.460;2024-03-23T13:43:06;33.62;1.00
74420;DHT22;62855;50.718;-2.460;2024-03-23T13:46:05;33.26;6.00
74420;DHT22;62855;50.718;-2.460;2024-03-23T13:49:06;33.08;6.00
74420;DHT22;62855;50.718;-2.460;2024-03-23T13:52:06;32.90;7.00
74420;DHT22;62855;50.718;-2.460;2024-03-23T13:55:06;32.72;7.00
74420;DHT22;62855;50.718;-2.460;2024-03-23T13:58:06;32.72;6.00
74420;DHT22;62855;50.718;-2.460;2024-03-23T14:01:05;32.72;7.00
74420;DHT22;62855;50.718;-2.460;2024-03-23T14:04:06;33.08;8.00
74420;DHT22;62855;50.718;-2.460;2024-03-23T14:07:05;32.00;2.00
74420;DHT22;62855;50.718;-2.460;2024-03-23T14:10:06;32.18;3.00
74420;DHT22;62855;50.718;-2.460;2024-03-23T14:13:06;32.36;3.00
74420;DHT22;62855;50.718;-2.460;2024-03-23T14:16:06;32.18;3.00
74420;DHT22;62855;50.718;-2.460;2024-03-23T14:19:06;32.18;3.00
74420;DHT22;62855;50.718;-2.460;2024-03-23T14:22:06;32.18;2.00
74420;DHT22;62855;50.718;-2.460;2024-03-23T14:25:06;32.18;2.00
74420;DHT22;62855;50.718;-2.460;2024-03-23T14:28:06;32.18;2.00
74420;DHT22;62855;50.718;-2.460;2024-03-23T14:31:06;32.36;2.00
74420;DHT22;62855;50.718;-2.460;2024-03-23T14:34:05;32.90;2.00
74420;DHT22;62855;50.718;-2.460;2024-03-23T14:37:06;33.44;3.00
74420;DHT22;62855;50.718;-2.460;2024-03-23T14:40:07;32.36;3.00
74420;DHT22;62855;50.718;-2.460;2024-03-23T14:43:06;32.90;3.00
74420;DHT22;62855;50.718;-2.460;2024-03-23T14:46:08;33.26;3.00
74420;DHT22;62855;50.718;-2.460;2024-03-23T14:49:06;33.26;2.00
74420;DHT22;62855;50.718;-2.460;2024-03-23T14:52:07;33.26;2.00
74420;DHT22;62855;50.718;-2.460;2024-03-23T14:55:06;33.26;1.00
74420;DHT22;62855;50.718;-2.460;2024-03-23T14:58:06;33.26;1.00
74420;DHT22;62855;50.718;-2.460;2024-03-23T15:01:07;33.26;0.00
74420;DHT22;62855;50.718;-2.460;2024-03-23T15:04:07;33.08;9.00
74420;DHT22;62855;50.718;-2.460;2024-03-23T15:07:06;33.08;5.00
74420;DHT22;62855;50.718;-2.460;2024-03-23T15:10:06;33.26;4.00
74420;DHT22;62855;50.718;-2.460;2024-03-23T15:13:06;33.08;1.00
74420;DHT22;62855;50.718;-2.460;2024-03-23T15:16:06;32.90;0.00
74420;DHT22;62855;50.718;-2.460;2024-03-23T15:19:05;32.72;0.00
74420;DHT22;62855;50.718;-2.460;2024-03-23T15:22:06;32.72;8.00
74420;DHT22;62855;50.718;-2.460;2024-03-23T15:25:06;32.54;7.00
74420;DHT22;62855;50.718;-2.460;2024-03-23T15:28:06;32.36;6.00
74420;DHT22;62855;50.718;-2.460;2024-03-23T15:31:06;32.36;7.00
74420;DHT22;62855;50.718;-2.460;2024-03-23T15:34:06;32.36;6.00
74420;DHT22;62855;50.718;-2.460;2024-03-23T15:37:06;32.72;5.00
74420;DHT22;62855;50.718;-2.460;2024-03-23T15:40:07;33.26;6.00
74420;DHT22;62855;50.718;-2.460;2024-03-23T15:43:05;32.00;7.00
74420;DHT22;62855;50.718;-2.460;2024-03-23T15:46:06;32.36;6.00
74420;DHT22;62855;50.718;-2.460;2024-03-23T15:49:06;32.54;6.00
74420;DHT22;62855;50.718;-2.460;2024-03-23T15:52:06;32.72;6.00
74420;DHT22;62855;50.718;-2.460;2024-03-23T15:55:06;32.54;4.00
74420;DHT22;62855;50.718;-2.460;2024-03-23T15:58:06;32.00;3.00
74420;DHT22;62855;50.718;-2.460;2024-03-23T16:01:07;33.62;3.00
74420;DHT22;62855;50.718;-2.460;2024-03-23T16:04:05;33.26;4.00
74420;DHT22;62855;50.718;-2.460;2024-03-23T16:07:05;33.26;4.00
74420;DHT22;62855;50.718;-2.460;2024-03-23T16:10:07;32.72;5.00
74420;DHT22;62855;50.718;-2.460;2024-03-23T16:13:05;32.00;6.00
74420;DHT22;62855;50.718;-2.460;2024-03-23T16:16:06;33.26;7.00
74420;DHT22;62855;50.718;-2.460;2024-03-23T16:19:06;32.72;9.00
74420;DHT22;62855;50.718;-2.460;2024-03-23T16:22:06;32.36;0.00
74420;DHT22;62855;50.718;-2.460;2024-03-23T16:25:06;32.36;0.00
74420;DHT22;62855;50.718;-2.460;2024-03-23T16:28:05;32.54;1.00
74420;DHT22;62855;50.718;-2.460;2024-03-23T16:31:06;32.72;1.00
74420;DHT22;62855;50.718;-2.460;2024-03-23T16:34:06;32.90;1.00
74420;DHT22;62855;50.718;-2.460;2024-03-23T16:37:06;32.90;1.00
74420;DHT22;62855;50.718;-2.460;2024-03-23T16:40:07;32.90;1.00
74420;DHT22;62855;50.718;-2.460;2024-03-23T16:43:06;32.72;1.00
74420;DHT22;62855;50.718;-2.460;2024-03-23T16:46:06;32.54;1.00
74420;DHT22;62855;50.718;-2.460;2024-03-23T16:49:05;32.36;1.00
74420;DHT22;62855;50.718;-2.460;2024-03-23T16:52:07;32.36;1.00
74420;DHT22;62855;50.718;-2.460;2024-03-23T16:55:06;32.36;1.00
74420;DHT22;62855;50.718;-2.460;2024-03-23T16:58:06;32.36;2.00
74420;DHT22;62855;50.718;-2.460;2024-03-23T17:01:06;32.36;2.00
74420;DHT22;62855;50.718;-2.460;2024-03-23T17:04:06;32.36;2.00
74420;DHT22;62855;50.718;-2.460;2024-03-23T17:07:06;32.36;2.00
74420;DHT22;62855;50.718;-2.460;2024-03-23T17:10:06;32.36;2.00
74420;DHT22;62855;50.718;-2.460;2024-03-23T17:13:06;32.54;2.00
74420;DHT22;62855;50.718;-2.460;2024-03-23T17:16:06;32.72;1.00
74420;DHT22;62855;50.718;-2.460;2024-03-23T17:19:06;33.08;0.00
74420;DHT22;62855;50.718;-2.460;2024-03-23T17:22:05;33.08;8.00
74420;DHT22;62855;50.718;-2.460;2024-03-23T17:25:06;33.26;5.00
74420;DHT22;62855;50.718;-2.460;2024-03-23T17:28:06;33.26;4.00
74420;DHT22;62855;50.718;-2.460;2024-03-23T17:31:05;33.08;4.00
74420;DHT22;62855;50.718;-2.460;2024-03-23T17:34:06;33.08;4.00
74420;DHT22;62855;50.718;-2.460;2024-03-23T17:37:06;32.90;4.00
74420;DHT22;62855;50.718;-2.460;2024-03-23T17:40:06;32.90;4.00
74420;DHT22;62855;50.718;-2.460;2024-03-23T17:43:05;32.72;5.00
74420;DHT22;62855;50.718;-2.460;2024-03-23T17:46:06;32.72;5.00
74420;DHT22;62855;50.718;-2.460;2024-03-23T17:49:06;32.54;6.00
74420;DHT22;62855;50.718;-2.460;2024-03-23T17:52:09;32.54;6.00
74420;DHT22;62855;50.718;-2.460;2024-03-23T17:55:06;32.36;7.00
74420;DHT22;62855;50.718;-2.460;2024-03-23T17:58:06;32.36;7.00
74420;DHT22;62855;50.718;-2.460;2024-03-23T18:01:07;32.36;7.00
74420;DHT22;62855;50.718;-2.460;2024-03-23T18:04:06;32.18;8.00
74420;DHT22;62855;50.718;-2.460;2024-03-23T18:07:05;32.00;8.00
74420;DHT22;62855;50.718;-2.460;2024-03-23T18:10:07;32.00;9.00
74420;DHT22;62855;50.718;-2.460;2024-03-23T18:13:06;32.00;9.00
74420;DHT22;62855;50.718;-2.460;2024-03-23T18:16:06;33.62;9.00
74420;DHT22;62855;50.718;-2.460;2024-03-23T18:19:06;33.62;9.00
74420;DHT22;62855;50.718;-2.460;2024-03-23T18:22:06;33.62;0.00
74420;DHT22;62855;50.718;-2.460;2024-03-23T18:25:05;33.44;2.00
74420;DHT22;62855;50.718;-2.460;2024-03-23T18:28:06;33.44;3.00
74420;DHT22;62855;50.718;-2.460;2024-03-23T18:31:05;33.26;3.00
74420;DHT22;62855;50.718;-2.460;2024-03-23T18:34:06;33.08;3.00
74420;DHT22;62855;50.718;-2.460;2024-03-23T18:37:06;33.08;3.00
74420;DHT22;62855;50.718;-2.460;2024-03-23T18:40:06;33.08;3.00
74420;DHT22;62855;50.718;-2.460;2024-03-23T18:43:05;33.08;3.00
74420;DHT22;62855;50.718;-2.460;2024-03-23T18:46:06;32.90;3.00
74420;DHT22;62855;50.718;-2.460;2024-03-23T18:49:06;32.90;3.00
74420;DHT22;62855;50.718;-2.460;2024-03-23T18:52:06;32.72;3.00
74420;DHT22;62855;50.718;-2.460;2024-03-23T18:55:06;32.72;3.00
74420;DHT22;62855;50.718;-2.460;2024-03-23T18:58:05;32.72;3.00
74420;DHT22;62855;50.718;-2.460;2024-03-23T19:01:06;32.72;3.00
74420;DHT22;62855;50.718;-2.460;2024-03-23T19:04:05;32.54;3.00
74420;DHT22;62855;50.718;-2.460;2024-03-23T19:07:06;32.54;3.00
74420;DHT22;62855;50.718;-2.460;2024-03-23T19:10:07;32.54;3.00
74420;DHT22;62855;50.718;-2.460;2024-03-23T19:13:05;32.54;3.00
74420;DHT22;62855;50.718;-2.460;2024-03-23T19:16:06;32.54;3.00
74420;DHT22;62855;50.718;-2.460;2024-03-23T19:19:06;32.36;2.00
74420;DHT22;62855;50.718;-2.460;2024-03-23T19:22:06;32.36;2.00
74420;DHT22;62855;50.718;-2.460;2024-03-23T19:25:06;32.36;2.00
74420;DHT22;62855;50.718;-2.460;2024-03-23T19:28:06;32.36;3.00
74420;DHT22;62855;50.718;-2.460;2024-03-23T19:31:06;32.36;3.00
74420;DHT22;62855;50.718;-2.460;2024-03-23T19:34:05;32.18;3.00
74420;DHT22;62855;50.718;-2.460;2024-03-23T19:37:06;32.18;3.00
74420;DHT22;62855;50.718;-2.460;2024-03-23T19:40:07;32.18;3.00
74420;DHT22;62855;50.718;-2.460;2024-03-23T19:43:06;32.00;3.00
74420;DHT22;62855;50.718;-2.460;2024-03-23T19:46:05;32.00;4.00
74420;DHT22;62855;50.718;-2.460;2024-03-23T19:49:06;33.62;4.00
74420;DHT22;62855;50.718;-2.460;2024-03-23T19:52:05;33.62;4.00
74420;DHT22;62855;50.718;-2.460;2024-03-23T19:55:06;33.62;4.00
74420;DHT22;62855;50.718;-2.460;2024-03-23T19:58:06;33.62;5.00
74420;DHT22;62855;50.718;-2.460;2024-03-23T20:01:13;33.62;5.00